Kezdőlap
METAR-TAF:

METAR-TAF

Repülőterek :

Kuala Terengganu, Malajzia

földrajzi szélesség: 05-22-53N, földrajzi hosszúság: 103-06-17E, magasság: 6 m

Jelenlegi meteorológiai megfigyelések

A jelentés 28 perccel ezelõtt készült, 14:00 UTC
Déli szél 3 kt, kelet-délkeleti és dél-délnyugati között változik
Hőmérséklet 29°C
Páratartalom 89%
Légköri nyomás 1009 hPa
Látótávolság: 9000 m
Kevés felhő 2200 lábon

METAR: WMKN 231400Z 17003KT 120V200 9000 FEW022 29/27 Q1009

Idő: 22:28 (14:28 UTC)

Előrejelzés

A jelentés 3 órával és 28 perccel ezelõtt készült, 11:00 UTC
Az előrejelzés 23-én 12 óra UTC és 24-én 12 óra UTC között érvényes
Délkeleti szél 6 kt
Látótávolság 10 km, vagy több
Kevés felhő 2200 lábon
23-én 16 óra UTC és 23-én 17 óra UTC között fokozatosan kialakuló
Különbözõ irányokból fújó szél 3 kt

TAF: WMKN 231100Z 2312/2412 14006KT 9999 FEW022 BECMG 2316/2317 VRB03KT

Meteorológiai megfigyelések és előrejelzések több, mint 4000 repülőtéren (METAR és TAF jelentéseket).

A térképen piros és sárga pontok jelzik az elérhető meteorológiai állomásokat.

Mozgassa az egeret a pont fölött, hogy megjelenjen az állomás neve.

Azután kattintson az időjárási megfigyelések és előrejelzések megtekintéséhez.

A térkép megváltoztatása: kattintson a fekete keresztel jelölt zöld gombra ráközelítéshez, a vonallal jelölt zöld gombra távolításhoz, vagy a zöld nyilakra a szomszédos térképek eléréséhez.


METAR-TAF: